Time;durP1;ratioP1;P1;durP2;ratioP2;P2;SDS_P1;SDS_P2;PMS_P1;PMS_P2;Temp;Humidity;BMP_temperature;BMP_pressure;BME280_temperature;BME280_humidity;BME280_pressure;Samples;Min_cycle;Max_cycle;Signal;HPM_P1;HPM_P2
2023/04/11 00:00:20;;;;;;;1.9;1.4;;;;;;;8.21;68.08105;937.0419;;;;
2023/04/11 00:02:46;;;;;;;1.9;1.6;;;;;;;8.06;68.37402;936.9789;;;;
2023/04/11 00:05:17;;;;;;;3.2;1.8;;;;;;;7.98;68.21387;936.9464;;;;
2023/04/11 00:07:49;;;;;;;2.5;1.6;;;;;;;8.03;68.64258;936.8619;;;;
2023/04/11 00:10:14;;;;;;;2.1;1.6;;;;;;;8.17;69.64063;936.8269;;;;
2023/04/11 00:12:42;;;;;;;3.3;1.9;;;;;;;8.32;69.04102;936.7422;;;;
2023/04/11 00:15:08;;;;;;;2;1.6;;;;;;;8.45;66.17676;936.7067;;;;
2023/04/11 00:17:38;;;;;;;1.9;1.7;;;;;;;8.42;66.23926;936.6579;;;;
2023/04/11 00:20:06;;;;;;;2.3;1.7;;;;;;;8.43;66.00195;936.6334;;;;
2023/04/11 00:22:29;;;;;;;2.6;1.7;;;;;;;8.46;66.29004;936.6345;;;;
2023/04/11 00:24:55;;;;;;;2.5;1.6;;;;;;;8.5;66.41016;936.6567;;;;
2023/04/11 00:27:20;;;;;;;2;1.6;;;;;;;8.46;66.43945;936.6513;;;;
2023/04/11 00:29:45;;;;;;;2.1;1.7;;;;;;;8.48;66.77051;936.6459;;;;
2023/04/11 00:32:10;;;;;;;1.4;1.3;;;;;;;8.54;65.9502;936.4604;;;;
2023/04/11 00:34:35;;;;;;;1.3;1.2;;;;;;;8.52;66.58398;936.4895;;;;
2023/04/11 00:37:02;;;;;;;1.9;1.5;;;;;;;8.51;65.94629;936.5179;;;;
2023/04/11 00:39:29;;;;;;;1.4;1.1;;;;;;;8.57;65.54492;936.4497;;;;
2023/04/11 00:41:54;;;;;;;1.5;1.3;;;;;;;8.64;64.32813;936.4343;;;;
2023/04/11 00:44:19;;;;;;;1.5;1.4;;;;;;;8.77;63.48438;936.3876;;;;
2023/04/11 00:46:46;;;;;;;1.3;1.2;;;;;;;8.82;62.97949;936.3194;;;;
2023/04/11 00:49:11;;;;;;;1.5;1.3;;;;;;;8.89;60.52148;936.1678;;;;
2023/04/11 00:51:37;;;;;;;1.1;1;;;;;;;8.93;60.95898;936.0278;;;;
2023/04/11 00:54:02;;;;;;;1.6;1.3;;;;;;;8.98;60.88672;936.0189;;;;
2023/04/11 00:56:28;;;;;;;1.3;1.2;;;;;;;9;59.60449;935.9523;;;;
2023/04/11 00:58:53;;;;;;;1.2;1.1;;;;;;;9.07;60;935.9352;;;;
2023/04/11 01:01:22;;;;;;;1.3;1.2;;;;;;;9.1;60.96191;935.88;;;;
2023/04/11 01:03:46;;;;;;;1.6;1.2;;;;;;;8.99;61.24121;935.7427;;;;
2023/04/11 01:06:12;;;;;;;1.4;1.1;;;;;;;8.96;59.75879;935.6844;;;;
2023/04/11 01:08:37;;;;;;;1.3;1.2;;;;;;;9.03;57.56152;935.718;;;;
2023/04/11 01:11:03;;;;;;;1;0.9;;;;;;;9.1;57.09277;935.6925;;;;
2023/04/11 01:13:28;;;;;;;1;1;;;;;;;9.18;57.0459;935.6592;;;;
2023/04/11 01:15:55;;;;;;;1.2;1.1;;;;;;;9.27;56.29492;935.6667;;;;
2023/04/11 01:18:20;;;;;;;1.1;1;;;;;;;9.34;55.7793;935.6563;;;;
2023/04/11 01:20:46;;;;;;;1.2;1.1;;;;;;;9.29;58.34668;935.6431;;;;
2023/04/11 01:23:11;;;;;;;1.9;1.6;;;;;;;9.16;62.42676;935.6336;;;;
2023/04/11 01:25:38;;;;;;;1.9;1.7;;;;;;;9;63.79199;935.6903;;;;
2023/04/11 01:28:03;;;;;;;2.7;1.6;;;;;;;8.99;64.25586;935.8188;;;;
2023/04/11 01:30:29;;;;;;;2.5;1.4;;;;;;;8.78;64.71387;935.8932;;;;
2023/04/11 01:32:54;;;;;;;1.8;1.4;;;;;;;8.66;64.83301;935.8306;;;;
2023/04/11 01:35:20;;;;;;;50;25.9;;;;;;;8.58;65.23926;935.7967;;;;
2023/04/11 01:37:45;;;;;;;216.4;100.3;;;;;;;8.58;65.20703;935.8348;;;;
2023/04/11 01:40:10;;;;;;;25.5;12.4;;;;;;;8.63;64.87109;935.8984;;;;
2023/04/11 01:42:37;;;;;;;3.3;1.8;;;;;;;8.7;64.63379;935.7842;;;;
2023/04/11 01:45:02;;;;;;;2.6;1.7;;;;;;;8.68;64.50488;935.688;;;;
2023/04/11 01:47:27;;;;;;;1.5;1.2;;;;;;;8.8;63.01074;935.6878;;;;
2023/04/11 01:49:54;;;;;;;2.2;1.4;;;;;;;8.79;62.90723;935.8425;;;;
2023/04/11 01:52:20;;;;;;;2.2;1.3;;;;;;;8.72;62.625;935.8686;;;;
2023/04/11 01:54:45;;;;;;;2.5;1.8;;;;;;;8.61;64.28906;935.7313;;;;
2023/04/11 01:57:12;;;;;;;1.4;1.3;;;;;;;8.67;64.87988;935.7299;;;;
2023/04/11 01:59:37;;;;;;;1.6;1.1;;;;;;;8.77;62.8916;935.731;;;;
2023/04/11 02:02:04;;;;;;;1.4;1.2;;;;;;;8.76;61.5957;935.685;;;;
2023/04/11 02:04:29;;;;;;;1.3;1.2;;;;;;;8.85;60.4375;935.6942;;;;
2023/04/11 02:06:55;;;;;;;1.3;1.2;;;;;;;8.91;60.94434;935.5385;;;;
2023/04/11 02:09:21;;;;;;;1.8;1.3;;;;;;;8.97;61.18164;935.5613;;;;
2023/04/11 02:11:47;;;;;;;1.1;1;;;;;;;8.92;62.20996;935.4314;;;;
2023/04/11 02:14:13;;;;;;;1.9;1.2;;;;;;;8.89;63.08105;935.2072;;;;
2023/04/11 02:16:37;;;;;;;1.3;1.2;;;;;;;8.83;63.31152;935.2177;;;;
2023/04/11 02:19:02;;;;;;;2.7;1.2;;;;;;;8.82;63.53809;935.1724;;;;
2023/04/11 02:21:30;;;;;;;1.5;1.4;;;;;;;8.8;63.10156;935.1702;;;;
2023/04/11 02:23:55;;;;;;;1.4;1.2;;;;;;;8.83;62.49219;935.2018;;;;
2023/04/11 02:26:22;;;;;;;1.3;1;;;;;;;8.86;63.38379;935.176;;;;
2023/04/11 02:28:47;;;;;;;2.2;1.3;;;;;;;8.92;62.22168;935.1941;;;;
2023/04/11 02:31:12;;;;;;;1.3;1.1;;;;;;;8.93;61.5625;935.1735;;;;
2023/04/11 02:33:37;;;;;;;1.8;1.1;;;;;;;8.93;61.18652;935.0687;;;;
2023/04/11 02:36:04;;;;;;;1.5;1.1;;;;;;;8.93;61.21094;934.9662;;;;
2023/04/11 02:38:29;;;;;;;1.9;1.2;;;;;;;8.86;61.74512;935.033;;;;
2023/04/11 02:40:55;;;;;;;1.1;1;;;;;;;8.87;60.89453;935.053;;;;
2023/04/11 02:43:20;;;;;;;0.9;0.8;;;;;;;8.8;61.49805;934.8836;;;;
2023/04/11 02:45:46;;;;;;;0.8;0.8;;;;;;;8.71;61.37207;934.9041;;;;
2023/04/11 02:48:11;;;;;;;1.2;1.1;;;;;;;8.68;61.96973;934.9386;;;;
2023/04/11 02:50:40;;;;;;;1.3;1.1;;;;;;;8.71;61.34961;934.9183;;;;
2023/04/11 02:53:05;;;;;;;1.5;1.1;;;;;;;8.86;63.07715;934.9036;;;;
2023/04/11 02:55:30;;;;;;;4.7;1.9;;;;;;;8.97;61.56836;934.9356;;;;
2023/04/11 02:57:55;;;;;;;2.4;1.7;;;;;;;8.96;61.97559;934.98;;;;
2023/04/11 03:00:22;;;;;;;1.4;1.2;;;;;;;8.81;62.70605;934.8705;;;;
2023/04/11 03:02:47;;;;;;;2.1;1.5;;;;;;;8.7;63.66699;934.7985;;;;
2023/04/11 03:05:17;;;;;;;1.4;1.3;;;;;;;8.65;63.88672;934.8359;;;;
2023/04/11 03:07:45;;;;;;;2.9;1.7;;;;;;;8.63;64.07813;934.8834;;;;
2023/04/11 03:10:10;;;;;;;44.3;23.6;;;;;;;8.52;64.24316;934.954;;;;
2023/04/11 03:12:37;;;;;;;10.5;6;;;;;;;8.51;64.40234;935.0317;;;;
2023/04/11 03:15:02;;;;;;;2.5;1.8;;;;;;;8.56;63.55469;934.9695;;;;
2023/04/11 03:17:29;;;;;;;3.9;2.5;;;;;;;8.66;62.47852;934.8908;;;;
2023/04/11 03:19:54;;;;;;;6.3;4;;;;;;;8.84;61.44824;934.8113;;;;
2023/04/11 03:22:19;;;;;;;8;4.8;;;;;;;8.91;61.52539;934.7961;;;;
2023/04/11 03:24:48;;;;;;;4.5;2.9;;;;;;;9.04;60.99707;934.808;;;;
2023/04/11 03:27:11;;;;;;;1.4;1.1;;;;;;;8.91;63.30078;934.6738;;;;
2023/04/11 03:29:38;;;;;;;2;1.2;;;;;;;8.74;64.53711;934.6528;;;;
2023/04/11 03:32:03;;;;;;;2.1;1.5;;;;;;;8.75;63.87891;934.6592;;;;
2023/04/11 03:34:29;;;;;;;1.8;1.2;;;;;;;8.76;63.82422;934.6149;;;;
2023/04/11 03:36:54;;;;;;;1.2;1.1;;;;;;;8.86;59.15234;934.5606;;;;
2023/04/11 03:39:20;;;;;;;1.2;1;;;;;;;8.94;59.05078;934.5288;;;;
2023/04/11 03:41:45;;;;;;;1.4;1.2;;;;;;;9.07;59.22559;934.6072;;;;
2023/04/11 03:44:13;;;;;;;1.1;1.1;;;;;;;9.02;60.19824;934.6497;;;;
2023/04/11 03:46:44;;;;;;;1.7;1.3;;;;;;;9.07;60.5127;934.6597;;;;
2023/04/11 03:49:12;;;;;;;1.3;1.2;;;;;;;9.01;62.99609;934.4789;;;;
2023/04/11 03:51:38;;;;;;;1.1;1;;;;;;;9.03;63.04492;934.6086;;;;
2023/04/11 03:54:05;;;;;;;2.6;1.1;;;;;;;9.07;64.00684;934.6677;;;;
2023/04/11 03:56:30;;;;;;;1.8;1.2;;;;;;;8.92;65.26855;934.4841;;;;
2023/04/11 03:58:58;;;;;;;1.2;1.1;;;;;;;8.89;64.38867;934.4878;;;;
2023/04/11 04:02:41;;;;;;;2.8;1.5;;;;;;;8.64;65.81738;934.3883;;;;
2023/04/11 04:05:06;;;;;;;1.7;1.3;;;;;;;8.7;65.22461;934.304;;;;
2023/04/11 04:07:36;;;;;;;1.2;1.1;;;;;;;8.74;65.2207;934.2425;;;;
2023/04/11 04:10:00;;;;;;;2;1.2;;;;;;;8.8;65.3418;934.17;;;;
2023/04/11 04:12:26;;;;;;;1.3;1.2;;;;;;;8.89;62.34082;934.1822;;;;
2023/04/11 04:14:52;;;;;;;1.9;1.3;;;;;;;9.01;63.74707;934.1589;;;;
2023/04/11 04:17:17;;;;;;;2.2;1.3;;;;;;;9.06;61.29688;934.1855;;;;
2023/04/11 04:19:43;;;;;;;1.2;1.1;;;;;;;9.17;58.47852;934.0554;;;;
2023/04/11 04:22:12;;;;;;;2.8;1.8;;;;;;;9.22;58.79297;933.894;;;;
2023/04/11 04:24:37;;;;;;;2;1.2;;;;;;;9.31;58.22461;933.8922;;;;
2023/04/11 04:27:07;;;;;;;2.1;1.4;;;;;;;9.27;58.38965;933.8491;;;;
2023/04/11 04:29:32;;;;;;;3.8;1.7;;;;;;;9.3;60.18066;933.7054;;;;
2023/04/11 04:31:55;;;;;;;2.5;1.7;;;;;;;9.26;61.96289;933.6694;;;;
2023/04/11 04:34:23;;;;;;;3.5;2;;;;;;;9.23;63.39355;933.5072;;;;
2023/04/11 04:36:47;;;;;;;8.1;4.2;;;;;;;9.17;64.31738;933.5978;;;;
2023/04/11 04:39:16;;;;;;;6.5;4.3;;;;;;;9;65.19043;933.6114;;;;
2023/04/11 04:41:38;;;;;;;4.6;3.4;;;;;;;9.02;65.87598;933.6714;;;;
2023/04/11 04:44:08;;;;;;;4;2.2;;;;;;;8.94;65.98828;933.6983;;;;
2023/04/11 04:46:35;;;;;;;3.7;2.2;;;;;;;8.83;66.68848;933.7545;;;;
2023/04/11 04:48:55;;;;;;;3.9;2.3;;;;;;;8.83;66.98438;933.9269;;;;
2023/04/11 04:51:23;;;;;;;3.4;1.9;;;;;;;8.76;66.68848;933.9473;;;;
2023/04/11 04:53:48;;;;;;;2.3;1.7;;;;;;;8.74;66.43652;933.8694;;;;
2023/04/11 04:56:16;;;;;;;2.4;1.6;;;;;;;8.83;66.62012;934.0126;;;;
2023/04/11 04:58:41;;;;;;;2.1;1.7;;;;;;;8.88;66.41211;934.1987;;;;
2023/04/11 05:01:10;;;;;;;2;1.7;;;;;;;8.79;66.75195;934.3239;;;;
2023/04/11 05:03:34;;;;;;;3.8;2.5;;;;;;;8.81;67.50293;934.2803;;;;
2023/04/11 05:06:01;;;;;;;4.4;2.9;;;;;;;8.89;68.0293;934.3425;;;;
2023/04/11 05:08:26;;;;;;;5.4;2.7;;;;;;;8.99;66.77051;934.4514;;;;
2023/04/11 05:10:51;;;;;;;5.3;2.1;;;;;;;8.9;68.39453;934.4744;;;;
2023/04/11 05:13:16;;;;;;;2.2;1.8;;;;;;;8.86;68.5459;934.4844;;;;
2023/04/11 05:15:48;;;;;;;2.8;2.1;;;;;;;8.92;68.49902;934.5889;;;;
2023/04/11 05:18:18;;;;;;;3.6;2.2;;;;;;;8.75;69.14258;934.6942;;;;
2023/04/11 05:20:43;;;;;;;4.2;2.4;;;;;;;8.86;70.11621;934.5676;;;;
2023/04/11 05:23:10;;;;;;;3.6;2.4;;;;;;;8.96;71.03223;934.6449;;;;
2023/04/11 05:25:35;;;;;;;2.8;1.9;;;;;;;8.99;70.90039;934.5587;;;;
2023/04/11 05:28:01;;;;;;;3.2;2.1;;;;;;;9.05;69.74805;934.4689;;;;
2023/04/11 05:30:27;;;;;;;2.4;2;;;;;;;9.07;71.20898;934.5184;;;;
2023/04/11 05:32:53;;;;;;;2.7;2.2;;;;;;;9.08;72.24609;934.2992;;;;
2023/04/11 05:35:20;;;;;;;3.3;2.6;;;;;;;9.04;72.28418;934.3275;;;;
2023/04/11 05:37:47;;;;;;;2.8;2.1;;;;;;;8.89;72.88574;934.3544;;;;
2023/04/11 05:40:12;;;;;;;4;2.1;;;;;;;8.95;72.21387;934.3836;;;;
2023/04/11 05:42:38;;;;;;;3.5;1.9;;;;;;;8.93;72.14063;934.3373;;;;
2023/04/11 05:45:03;;;;;;;2.9;1.9;;;;;;;9;71.84766;934.3578;;;;
2023/04/11 05:47:30;;;;;;;1.9;1.7;;;;;;;9.15;71.04102;934.3245;;;;
2023/04/11 05:49:54;;;;;;;2.8;1.7;;;;;;;9.23;70.08691;934.2603;;;;
2023/04/11 05:52:20;;;;;;;1.8;1.5;;;;;;;9.38;66.94531;934.3178;;;;
2023/04/11 05:54:45;;;;;;;2.6;1.4;;;;;;;9.53;68.83496;934.2086;;;;
2023/04/11 05:57:13;;;;;;;5.4;1.8;;;;;;;9.68;68.32422;934.2011;;;;
2023/04/11 05:59:38;;;;;;;2.9;1.8;;;;;;;9.78;66.7793;934.2296;;;;
2023/04/11 06:02:05;;;;;;;3.2;2.4;;;;;;;9.84;67.53027;934.142;;;;
2023/04/11 06:04:30;;;;;;;7.3;6.6;;;;;;;9.77;66.11523;934.1015;;;;
2023/04/11 06:06:56;;;;;;;2.6;2;;;;;;;9.79;64.15918;934.0404;;;;
2023/04/11 06:09:21;;;;;;;2.4;1.8;;;;;;;9.96;64.94727;934.0033;;;;
2023/04/11 06:11:47;;;;;;;4.3;3.3;;;;;;;10.04;65.17676;933.9539;;;;
2023/04/11 06:14:13;;;;;;;2.7;2.4;;;;;;;10.12;62.3252;934.0067;;;;
2023/04/11 06:16:40;;;;;;;2.4;1.7;;;;;;;10.23;61.31445;934.0809;;;;
2023/04/11 06:19:04;;;;;;;1.9;1.7;;;;;;;10.38;63.28809;933.9796;;;;
2023/04/11 06:21:31;;;;;;;1.7;1.6;;;;;;;10.41;61.38574;934.0564;;;;
2023/04/11 06:23:56;;;;;;;1.6;1.5;;;;;;;10.53;61.0498;934.1658;;;;
2023/04/11 06:26:21;;;;;;;2.5;1.8;;;;;;;10.47;62.83398;934.2683;;;;
2023/04/11 06:28:50;;;;;;;2.8;2.3;;;;;;;10.47;62.33105;934.4211;;;;
2023/04/11 06:31:14;;;;;;;1.4;1.3;;;;;;;10.54;65.93652;934.4763;;;;
2023/04/11 06:33:44;;;;;;;2.5;1.2;;;;;;;10.32;67.58203;934.5477;;;;
2023/04/11 06:36:11;;;;;;;1.4;1.2;;;;;;;10.43;64.32129;934.6064;;;;
2023/04/11 06:38:37;;;;;;;2.7;2.5;;;;;;;10.32;64.34082;934.4943;;;;
2023/04/11 06:41:03;;;;;;;5.6;3.1;;;;;;;10.15;65.0918;934.4961;;;;
2023/04/11 06:43:29;;;;;;;6;4.2;;;;;;;10.1;65.11719;934.4354;;;;
2023/04/11 06:45:54;;;;;;;4.4;2.7;;;;;;;9.86;63.46289;934.6168;;;;
2023/04/11 06:48:19;;;;;;;5.2;4.1;;;;;;;10.08;63.71191;934.6103;;;;
2023/04/11 06:50:46;;;;;;;2.9;1.7;;;;;;;10.3;62.22559;934.6478;;;;
2023/04/11 06:53:11;;;;;;;2.6;1.3;;;;;;;10.41;60.3125;934.7438;;;;
2023/04/11 06:55:37;;;;;;;1.7;1.5;;;;;;;10.4;60.79199;934.684;;;;
2023/04/11 06:58:02;;;;;;;3.8;2.1;;;;;;;10.36;63.76465;934.6823;;;;
2023/04/11 07:00:30;;;;;;;2.7;1.6;;;;;;;10.34;63.65918;934.7514;;;;
2023/04/11 07:02:55;;;;;;;3;1.9;;;;;;;10.38;63.9043;934.7516;;;;
2023/04/11 07:05:21;;;;;;;4.4;2.6;;;;;;;10.4;62.82422;934.8758;;;;
2023/04/11 07:07:46;;;;;;;3.6;2.4;;;;;;;10.49;65.17578;934.9291;;;;
2023/04/11 07:10:11;;;;;;;4.7;2.7;;;;;;;10.31;66.02734;935.0083;;;;
2023/04/11 07:12:37;;;;;;;5.7;3.3;;;;;;;10.18;67.93652;934.9705;;;;
2023/04/11 07:15:02;;;;;;;2.5;2.2;;;;;;;10.13;68.8418;935.0044;;;;
2023/04/11 07:17:27;;;;;;;3.1;2.6;;;;;;;10.08;70.99902;935.0677;;;;
2023/04/11 07:19:52;;;;;;;3.2;1.9;;;;;;;10.1;69.58887;935.0734;;;;
2023/04/11 07:22:19;;;;;;;1.9;1.7;;;;;;;10.16;71.43555;935.1199;;;;
2023/04/11 07:24:45;;;;;;;3.6;2.3;;;;;;;10.2;74.83008;935.1703;;;;
2023/04/11 07:27:12;;;;;;;3.7;2.2;;;;;;;10.31;75.16797;935.1978;;;;
2023/04/11 07:29:36;;;;;;;6.9;4.2;;;;;;;10.48;75.5752;935.2944;;;;
2023/04/11 07:32:02;;;;;;;4.1;2.9;;;;;;;10.59;76.91797;935.2367;;;;
2023/04/11 07:34:27;;;;;;;10.7;5.3;;;;;;;10.58;78.32324;935.31;;;;
2023/04/11 07:36:59;;;;;;;3.4;2.2;;;;;;;10.55;79.20508;935.4578;;;;
2023/04/11 07:39:19;;;;;;;3.4;2.5;;;;;;;10.43;81.39844;935.4756;;;;
2023/04/11 07:41:44;;;;;;;2.4;1.6;;;;;;;10.31;81.85547;935.4993;;;;
2023/04/11 07:44:09;;;;;;;3;1.8;;;;;;;10.24;78.81934;935.46;;;;
2023/04/11 07:46:36;;;;;;;3.2;1.3;;;;;;;10.18;77.63184;935.5019;;;;
2023/04/11 07:49:01;;;;;;;2.5;1.5;;;;;;;10.39;78.78711;935.4989;;;;
2023/04/11 07:51:28;;;;;;;1.6;1.5;;;;;;;10.57;79.54102;935.4031;;;;
2023/04/11 07:53:53;;;;;;;5.8;2;;;;;;;10.68;81.07031;935.4747;;;;
2023/04/11 07:56:18;;;;;;;22.8;12.4;;;;;;;10.58;82.99316;935.5719;;;;
2023/04/11 07:58:43;;;;;;;5.1;3;;;;;;;10.51;82.89941;935.5262;;;;
2023/04/11 08:01:09;;;;;;;4.3;2.6;;;;;;;10.56;84.39258;935.5496;;;;
2023/04/11 08:03:34;;;;;;;2.6;2.3;;;;;;;10.69;84.83984;935.5504;;;;
2023/04/11 08:06:01;;;;;;;3.2;2.4;;;;;;;10.73;84.30078;935.5234;;;;
2023/04/11 08:08:26;;;;;;;5.4;2.6;;;;;;;10.71;83.36035;935.5209;;;;
2023/04/11 08:10:52;;;;;;;5.1;3.6;;;;;;;10.56;83.28516;935.5081;;;;
2023/04/11 08:13:17;;;;;;;4.5;3.3;;;;;;;10.41;83.3584;935.4604;;;;
2023/04/11 08:15:49;;;;;;;3.2;2.6;;;;;;;10.35;82.95996;935.4614;;;;
2023/04/11 08:18:15;;;;;;;4.3;2.8;;;;;;;10.18;84.37598;935.4144;;;;
2023/04/11 08:20:41;;;;;;;5.3;3.1;;;;;;;10.25;85.67871;935.503;;;;
2023/04/11 08:23:07;;;;;;;6.4;3.9;;;;;;;10.27;85.66895;935.4481;;;;
2023/04/11 08:25:31;;;;;;;5;3.4;;;;;;;10.14;86.39746;935.5438;;;;
2023/04/11 08:27:56;;;;;;;6.1;3.2;;;;;;;10.18;87.19141;935.626;;;;
2023/04/11 08:30:21;;;;;;;3.8;3;;;;;;;10.03;89.61621;935.7301;;;;
2023/04/11 08:32:47;;;;;;;4.9;3.2;;;;;;;10.07;90.46777;935.72;;;;
2023/04/11 08:35:12;;;;;;;4;3;;;;;;;10.17;87.9541;935.6944;;;;
2023/04/11 08:37:39;;;;;;;5.8;3;;;;;;;9.95;88.26367;935.7283;;;;
2023/04/11 08:40:06;;;;;;;4.4;3.2;;;;;;;10.11;88.92383;935.632;;;;
2023/04/11 08:42:31;;;;;;;5.4;3.2;;;;;;;10.28;88.29785;935.6766;;;;
2023/04/11 08:44:56;;;;;;;5.2;3.8;;;;;;;10.28;88.82227;935.6472;;;;
2023/04/11 08:47:21;;;;;;;4.4;3.4;;;;;;;10.32;88.22461;935.7294;;;;
2023/04/11 08:49:47;;;;;;;15;8.9;;;;;;;10.44;88.08887;935.6978;;;;
2023/04/11 08:52:12;;;;;;;4.9;3.5;;;;;;;10.44;88.61426;935.5281;;;;
2023/04/11 08:54:37;;;;;;;6.9;4.8;;;;;;;10.49;88.2832;935.4886;;;;
2023/04/11 08:57:02;;;;;;;5.4;3.7;;;;;;;10.41;88.51758;935.5614;;;;
2023/04/11 08:59:27;;;;;;;5.4;3.3;;;;;;;10.45;89.28906;935.5633;;;;
2023/04/11 09:01:53;;;;;;;5.3;3.2;;;;;;;10.62;89.08691;935.4728;;;;
2023/04/11 09:04:18;;;;;;;5.7;3.3;;;;;;;10.77;88.79688;935.5913;;;;
2023/04/11 09:06:43;;;;;;;5.3;3;;;;;;;10.77;88.78516;935.6964;;;;
2023/04/11 09:09:08;;;;;;;5.7;3.1;;;;;;;10.82;89.44824;935.7073;;;;
2023/04/11 09:11:34;;;;;;;4.2;3.8;;;;;;;10.88;88.73926;935.6605;;;;
2023/04/11 09:14:00;;;;;;;4.4;3.7;;;;;;;11.05;87.91699;935.7921;;;;
2023/04/11 09:16:25;;;;;;;9.7;8.2;;;;;;;11.11;88.40039;935.8322;;;;
2023/04/11 09:18:51;;;;;;;5.6;4.2;;;;;;;11.15;88.24609;935.9033;;;;
2023/04/11 09:21:16;;;;;;;2.9;2.1;;;;;;;11.16;86.86621;935.8961;;;;
2023/04/11 09:23:42;;;;;;;3.3;1.6;;;;;;;11.26;86.50684;935.9907;;;;
2023/04/11 09:26:07;;;;;;;1.9;1.7;;;;;;;11.41;85.93066;936.0066;;;;
2023/04/11 09:28:32;;;;;;;3.2;2.7;;;;;;;11.46;85.62109;936.1039;;;;
2023/04/11 09:30:57;;;;;;;3.5;2.2;;;;;;;11.58;85.43848;936.03;;;;
2023/04/11 09:33:23;;;;;;;2;1.7;;;;;;;11.59;84.9043;936.0405;;;;
2023/04/11 09:35:48;;;;;;;2.7;1.8;;;;;;;11.56;84.02734;936.0643;;;;
2023/04/11 09:38:18;;;;;;;3.7;2.1;;;;;;;11.52;83.92676;936.0339;;;;
2023/04/11 09:40:46;;;;;;;3.1;2.5;;;;;;;11.03;85.99512;936.0869;;;;
2023/04/11 09:43:11;;;;;;;3.8;2.9;;;;;;;10.93;86.63574;936.1602;;;;
2023/04/11 09:45:39;;;;;;;2.6;1.9;;;;;;;10.9;85.85156;935.9896;;;;
2023/04/11 09:48:04;;;;;;;1.4;1.3;;;;;;;10.93;84.64746;935.9554;;;;
2023/04/11 09:50:28;;;;;;;1.8;1.3;;;;;;;11;85.21973;935.9797;;;;
2023/04/11 09:52:54;;;;;;;0.9;0.6;;;;;;;10.77;85.06348;935.9911;;;;
2023/04/11 09:55:23;;;;;;;0.6;0.6;;;;;;;10.5;84.81543;936.0117;;;;
2023/04/11 09:57:52;;;;;;;0.3;0.3;;;;;;;10.19;84.5957;936.02;;;;
2023/04/11 10:00:17;;;;;;;0.3;0.3;;;;;;;10.03;84.87207;935.9814;;;;
2023/04/11 10:02:42;;;;;;;0.4;0.4;;;;;;;10.16;85.06641;936.0468;;;;
2023/04/11 10:05:09;;;;;;;0.4;0.2;;;;;;;9.99;82.77637;936.241;;;;
2023/04/11 10:07:33;;;;;;;0.7;0.2;;;;;;;10.03;84.11719;936.1588;;;;
2023/04/11 10:09:58;;;;;;;0.2;0.2;;;;;;;9.83;84.27246;936.1505;;;;
2023/04/11 10:12:24;;;;;;;0.7;0.3;;;;;;;9.91;85.21191;936.1616;;;;
2023/04/11 10:14:49;;;;;;;0.8;0.3;;;;;;;9.97;85.12207;936.2416;;;;
2023/04/11 10:17:15;;;;;;;0.4;0.3;;;;;;;9.89;84.57031;936.1383;;;;
2023/04/11 10:19:39;;;;;;;0.8;0.5;;;;;;;9.84;84.12793;935.9717;;;;
2023/04/11 10:22:05;;;;;;;0.4;0.3;;;;;;;9.8;82.06738;936.0076;;;;
2023/04/11 10:24:30;;;;;;;0.2;0.2;;;;;;;9.75;81.21387;936.0199;;;;
2023/04/11 10:26:56;;;;;;;0.2;0.1;;;;;;;9.7;80.96387;936.1046;;;;
2023/04/11 10:29:20;;;;;;;0.4;0.2;;;;;;;9.38;78.78809;936.12;;;;
2023/04/11 10:31:46;;;;;;;0.1;0.1;;;;;;;9.49;80.83398;936.0323;;;;
2023/04/11 10:34:11;;;;;;;0.5;0.3;;;;;;;9.59;82.1416;936.1286;;;;
2023/04/11 10:36:36;;;;;;;0.3;0.3;;;;;;;9.77;79.57617;936.1052;;;;
2023/04/11 10:39:01;;;;;;;0.2;0.2;;;;;;;9.67;76.7207;936.1233;;;;
2023/04/11 10:41:27;;;;;;;0.2;0.2;;;;;;;9.7;79.11816;936.3223;;;;
2023/04/11 10:43:53;;;;;;;0.1;0.1;;;;;;;9.86;77.80273;936.4314;;;;
2023/04/11 10:46:18;;;;;;;0.2;0.1;;;;;;;9.93;77.18848;936.5569;;;;
2023/04/11 10:48:43;;;;;;;0.1;0.1;;;;;;;9.85;77.56348;936.4099;;;;
2023/04/11 10:51:08;;;;;;;0.8;0.6;;;;;;;9.74;79.82129;936.5947;;;;
2023/04/11 10:53:35;;;;;;;1.9;1.5;;;;;;;9.73;82.69141;936.6136;;;;
2023/04/11 10:56:00;;;;;;;0.6;0.5;;;;;;;;;;;;;
2023/04/11 10:58:25;;;;;;;2.1;1.9;;;;;;;;;;;;;
2023/04/11 11:00:51;;;;;;;0.8;0.6;;;;;;;;;;;;;
2023/04/11 11:03:15;;;;;;;1.4;1;;;;;;;;;;;;;
2023/04/11 11:05:40;;;;;;;1;0.9;;;;;;;;;;;;;
2023/04/11 11:08:06;;;;;;;2.7;0.7;;;;;;;;;;;;;
2023/04/11 11:10:31;;;;;;;4.6;2.9;;;;;;;;;;;;;
2023/04/11 11:12:57;;;;;;;0.2;0.2;;;;;;;;;;;;;
2023/04/11 11:15:22;;;;;;;1.3;0.3;;;;;;;;;;;;;
2023/04/11 11:17:47;;;;;;;0.2;0.2;;;;;;;;;;;;;
2023/04/11 11:20:12;;;;;;;0.3;0.3;;;;;;;;;;;;;
2023/04/11 11:22:37;;;;;;;1;0.5;;;;;;;;;;;;;
2023/04/11 11:25:03;;;;;;;1.5;0.9;;;;;;;;;;;;;
2023/04/11 11:27:28;;;;;;;0.9;0.8;;;;;;;;;;;;;
2023/04/11 11:29:53;;;;;;;0.3;0.3;;;;;;;;;;;;;
2023/04/11 11:32:19;;;;;;;0.3;0.2;;;;;;;;;;;;;
2023/04/11 11:34:44;;;;;;;0.2;0.2;;;;;;;;;;;;;
2023/04/11 11:37:10;;;;;;;0.6;0.6;;;;;;;;;;;;;
2023/04/11 11:39:34;;;;;;;1.7;0.7;;;;;;;;;;;;;
2023/04/11 11:42:00;;;;;;;0.2;0.2;;;;;;;;;;;;;
2023/04/11 11:44:25;;;;;;;0.4;0.4;;;;;;;;;;;;;
2023/04/11 11:46:51;;;;;;;0.1;0.1;;;;;;;;;;;;;
2023/04/11 11:49:16;;;;;;;0.2;0.1;;;;;;;;;;;;;
2023/04/11 11:51:41;;;;;;;0.4;0.2;;;;;;;;;;;;;
2023/04/11 11:54:07;;;;;;;0.4;0.4;;;;;;;;;;;;;
2023/04/11 11:56:31;;;;;;;1.2;0.8;;;;;;;;;;;;;
2023/04/11 11:58:57;;;;;;;1;0.6;;;;;;;;;;;;;
2023/04/11 12:01:22;;;;;;;0.3;0.3;;;;;;;;;;;;;
2023/04/11 12:03:49;;;;;;;0.4;0.2;;;;;;;;;;;;;
2023/04/11 12:06:14;;;;;;;0.4;0.2;;;;;;;;;;;;;
2023/04/11 12:08:39;;;;;;;0.4;0.4;;;;;;;;;;;;;
2023/04/11 12:11:03;;;;;;;0.2;0.2;;;;;;;;;;;;;
2023/04/11 12:13:28;;;;;;;0.8;0.3;;;;;;;;;;;;;
2023/04/11 12:15:53;;;;;;;0.2;0.2;;;;;;;;;;;;;
2023/04/11 12:18:18;;;;;;;0.6;0.3;;;;;;;;;;;;;
2023/04/11 12:20:44;;;;;;;0.8;0.5;;;;;;;;;;;;;
2023/04/11 12:23:10;;;;;;;0.3;0.3;;;;;;;;;;;;;
2023/04/11 12:25:35;;;;;;;0.8;0.2;;;;;;;;;;;;;
2023/04/11 12:28:01;;;;;;;1.4;0.6;;;;;;;;;;;;;
2023/04/11 12:30:26;;;;;;;0.6;0.4;;;;;;;;;;;;;
2023/04/11 12:32:52;;;;;;;0.5;0.5;;;;;;;;;;;;;
2023/04/11 12:35:17;;;;;;;0.3;0.3;;;;;;;;;;;;;
2023/04/11 12:37:44;;;;;;;0.6;0.5;;;;;;;;;;;;;
2023/04/11 12:40:10;;;;;;;1.3;0.8;;;;;;;;;;;;;
2023/04/11 12:42:34;;;;;;;0.7;0.5;;;;;;;;;;;;;
2023/04/11 12:44:59;;;;;;;1.1;0.4;;;;;;;;;;;;;
2023/04/11 12:47:24;;;;;;;0.2;0.2;;;;;;;;;;;;;
2023/04/11 12:49:50;;;;;;;1.7;0.4;;;;;;;;;;;;;
2023/04/11 12:52:15;;;;;;;0.6;0.5;;;;;;;;;;;;;
2023/04/11 12:54:40;;;;;;;1.2;0.5;;;;;;;;;;;;;
2023/04/11 12:57:06;;;;;;;0.4;0.4;;;;;;;;;;;;;
2023/04/11 12:59:30;;;;;;;1.6;0.5;;;;;;;;;;;;;
2023/04/11 13:01:55;;;;;;;0.5;0.5;;;;;;;;;;;;;
2023/04/11 13:04:20;;;;;;;0.9;0.4;;;;;;;;;;;;;
2023/04/11 13:06:46;;;;;;;1.1;0.6;;;;;;;;;;;;;
2023/04/11 13:09:12;;;;;;;1.2;0.6;;;;;;;;;;;;;
2023/04/11 13:11:36;;;;;;;0.6;0.5;;;;;;;;;;;;;
2023/04/11 13:14:01;;;;;;;2.1;0.7;;;;;;;;;;;;;
2023/04/11 13:16:28;;;;;;;1;0.7;;;;;;;;;;;;;
2023/04/11 13:18:53;;;;;;;0.5;0.5;;;;;;;;;;;;;
2023/04/11 13:21:20;;;;;;;1.3;0.4;;;;;;;;;;;;;
2023/04/11 13:23:45;;;;;;;0.8;0.4;;;;;;;;;;;;;
2023/04/11 13:26:10;;;;;;;1;0.5;;;;;;;;;;;;;
2023/04/11 13:28:37;;;;;;;0.5;0.4;;;;;;;;;;;;;
2023/04/11 13:31:00;;;;;;;0.4;0.4;;;;;;;;;;;;;
2023/04/11 13:33:26;;;;;;;0.5;0.4;;;;;;;;;;;;;
2023/04/11 13:35:50;;;;;;;0.7;0.6;;;;;;;;;;;;;
2023/04/11 13:38:16;;;;;;;1.1;0.5;;;;;;;;;;;;;
2023/04/11 13:40:41;;;;;;;0.4;0.4;;;;;;;;;;;;;
2023/04/11 13:43:06;;;;;;;0.4;0.4;;;;;;;;;;;;;
2023/04/11 13:45:31;;;;;;;0.5;0.5;;;;;;;;;;;;;
2023/04/11 13:47:58;;;;;;;0.4;0.4;;;;;;;;;;;;;
2023/04/11 13:50:22;;;;;;;0.7;0.6;;;;;;;;;;;;;
2023/04/11 13:52:47;;;;;;;0.5;0.4;;;;;;;;;;;;;
2023/04/11 13:55:13;;;;;;;0.3;0.3;;;;;;;;;;;;;
2023/04/11 13:57:38;;;;;;;0.8;0.4;;;;;;;;;;;;;
2023/04/11 14:00:09;;;;;;;1;0.5;;;;;;;;;;;;;
2023/04/11 14:02:28;;;;;;;1.4;0.8;;;;;;;;;;;;;
2023/04/11 14:04:53;;;;;;;2.3;1.7;;;;;;;;;;;;;
2023/04/11 14:07:18;;;;;;;1.6;1.3;;;;;;;;;;;;;
2023/04/11 14:09:43;;;;;;;0.7;0.7;;;;;;;;;;;;;
2023/04/11 14:12:08;;;;;;;1.6;0.7;;;;;;;;;;;;;
2023/04/11 14:14:33;;;;;;;1.1;0.8;;;;;;;;;;;;;
2023/04/11 14:16:58;;;;;;;5.7;3.7;;;;;;;;;;;;;
2023/04/11 14:19:24;;;;;;;2.9;1.9;;;;;;;;;;;;;
2023/04/11 14:21:49;;;;;;;2.9;1.7;;;;;;;;;;;;;
2023/04/11 14:24:14;;;;;;;4.7;1.5;;;;;;;;;;;;;
2023/04/11 14:26:39;;;;;;;4.5;2.5;;;;;;;;;;;;;
2023/04/11 14:29:05;;;;;;;1.6;1.1;;;;;;;;;;;;;
2023/04/11 14:31:30;;;;;;;2.7;1.3;;;;;;;;;;;;;
2023/04/11 14:33:56;;;;;;;2.2;1;;;;;;;;;;;;;
2023/04/11 14:36:21;;;;;;;2.2;1.8;;;;;;;;;;;;;
2023/04/11 14:38:48;;;;;;;1.5;1.1;;;;;;;;;;;;;
2023/04/11 14:41:13;;;;;;;1.7;1.1;;;;;;;;;;;;;
2023/04/11 14:43:38;;;;;;;1.8;1.7;;;;;;;;;;;;;
2023/04/11 14:46:03;;;;;;;2;1.7;;;;;;;;;;;;;
2023/04/11 14:48:29;;;;;;;1.2;1.1;;;;;;;;;;;;;
2023/04/11 14:50:55;;;;;;;0.7;0.7;;;;;;;;;;;;;
2023/04/11 14:53:21;;;;;;;9.7;5.9;;;;;;;;;;;;;
2023/04/11 14:55:46;;;;;;;2.9;2.1;;;;;;;;;;;;;
2023/04/11 14:58:12;;;;;;;2;1;;;;;;;;;;;;;
2023/04/11 15:00:37;;;;;;;2;1.2;;;;;;;;;;;;;
2023/04/11 15:03:03;;;;;;;2.3;1.6;;;;;;;;;;;;;
2023/04/11 15:05:28;;;;;;;3.2;2.7;;;;;;;;;;;;;
2023/04/11 15:07:56;;;;;;;1.7;1.2;;;;;;;;;;;;;
2023/04/11 15:10:21;;;;;;;0.9;0.8;;;;;;;;;;;;;
2023/04/11 15:12:47;;;;;;;1.6;1;;;;;;;;;;;;;
2023/04/11 15:15:12;;;;;;;4.8;3.6;;;;;;;;;;;;;
2023/04/11 15:17:38;;;;;;;1.5;1.2;;;;;;;;;;;;;
2023/04/11 15:20:07;;;;;;;1;0.9;;;;;;;;;;;;;
2023/04/11 15:22:29;;;;;;;1.1;0.7;;;;;;;;;;;;;
2023/04/11 15:24:54;;;;;;;1;0.7;;;;;;;;;;;;;
2023/04/11 15:27:19;;;;;;;0.8;0.8;;;;;;;;;;;;;
2023/04/11 15:29:44;;;;;;;1.2;0.7;;;;;;;;;;;;;
2023/04/11 15:32:09;;;;;;;0.9;0.5;;;;;;;;;;;;;
2023/04/11 15:34:36;;;;;;;2.2;1.2;;;;;;;;;;;;;
2023/04/11 15:37:00;;;;;;;3.5;2.4;;;;;;;;;;;;;
2023/04/11 15:39:26;;;;;;;4.2;2.4;;;;;;;;;;;;;
2023/04/11 15:41:52;;;;;;;4.1;3.5;;;;;;;;;;;;;
2023/04/11 15:44:18;;;;;;;2.4;1.6;;;;;;;;;;;;;
2023/04/11 15:46:44;;;;;;;1.9;1.4;;;;;;;;;;;;;
2023/04/11 15:49:08;;;;;;;1.3;1.1;;;;;;;;;;;;;
2023/04/11 15:51:33;;;;;;;1.4;1;;;;;;;;;;;;;
2023/04/11 15:53:58;;;;;;;1.3;1.1;;;;;;;;;;;;;